Date,TemperatureHighF,TemperatureAvgF,TemperatureLowF,DewpointHighF,DewpointAvgF,DewpointLowF,HumidityHigh,HumidityAvg,HumidityLow,PressureMaxIn,PressureMinIn,WindSpeedMaxMPH,WindSpeedAvgMPH,GustSpeedMaxMPH,PrecipitationSumIn
2013-3-1,58,52,49,53,49,46,93,89,80,30.45,30.28,10,0,10,0.02
2013-3-2,54,49,42,49,46,38,91,88,83,30.28,30.18,9,0,9,0.02
2013-3-3,57,43,33,42,36,30,91,78,52,30.28,30.14,11,0,11,0.00
2013-3-4,56,42,30,45,36,27,88,79,63,30.14,29.83,19,1,19,0.00
2013-3-5,46,43,41,43,40,36,89,87,83,29.83,29.55,8,0,8,0.59
2013-3-6,52,45,40,47,41,37,91,88,78,29.92,29.51,21,1,21,0.00
2013-3-7,56,45,35,48,38,32,92,78,61,29.99,29.91,11,0,11,0.00
2013-3-8,56,43,33,46,37,30,91,81,63,30.18,29.97,14,0,14,0.00
2013-3-9,61,46,33,48,39,30,91,77,59,30.46,30.18,14,0,14,0.00
2013-3-10,61,46,34,48,40,31,91,80,57,30.46,30.37,14,0,14,0.00
2013-3-11,60,52,48,52,47,44,91,84,71,30.39,30.20,9,0,9,0.00
2013-3-12,60,50,44,52,45,41,90,84,72,30.21,30.16,11,1,13,0.00
2013-3-13,48,47,47,44,43,43,87,86,83,30.21,30.08,0,0,2,0.00
2013-3-21,42,40,40,36,35,35,85,83,80,30.34,30.31,8,0,8,0.04
2013-3-22,53,44,36,43,37,31,89,76,58,30.36,30.30,15,1,15,0.13
2013-3-23,56,43,33,40,34,29,89,73,51,30.35,30.20,16,0,16,0.00
2013-3-24,58,46,36,42,37,32,85,71,52,30.21,30.03,9,0,10,0.00
2013-3-25,59,48,39,46,40,35,88,76,61,30.03,29.91,7,0,11,0.00
2013-3-26,58,51,45,49,44,40,88,80,69,29.98,29.90,7,0,7,0.02
2013-3-27,59,52,45,52,47,41,90,83,74,29.95,29.85,12,0,12,0.04
2013-3-28,60,53,46,54,48,42,91,84,73,30.10,29.94,8,0,9,0.02
2013-3-29,71,56,48,58,49,43,90,78,57,30.14,30.06,9,0,9,0.00
2013-3-30,83,59,45,57,48,41,91,71,38,30.08,29.86,16,1,16,0.00
2013-3-31,69,55,48,55,48,43,88,80,59,30.01,29.93,12,1,14,0.00